createdAt,value
2018-09-11T00:00:46.990Z,16.39
2018-09-11T00:03:17.038Z,16.37
2018-09-11T00:05:46.970Z,16.37
2018-09-11T00:08:17.010Z,16.39
2018-09-11T00:10:47.054Z,16.39
2018-09-11T00:13:17.008Z,16.38
2018-09-11T00:15:46.094Z,16.38
2018-09-11T00:18:15.217Z,16.37
2018-09-11T00:20:44.382Z,16.35
2018-09-11T00:23:13.517Z,16.33
2018-09-11T00:25:42.590Z,16.30
2018-09-11T00:28:11.642Z,16.26
2018-09-11T00:30:40.802Z,16.21
2018-09-11T00:33:11.266Z,16.17
2018-09-11T00:35:40.318Z,16.19
2018-09-11T00:38:09.435Z,16.19
2018-09-11T00:40:38.555Z,16.20
2018-09-11T00:43:07.687Z,16.20
2018-09-11T00:45:36.756Z,16.17
2018-09-11T00:48:05.844Z,16.14
2018-09-11T00:50:34.953Z,16.09
2018-09-11T00:53:04.080Z,16.07
2018-09-11T00:55:33.151Z,16.05
2018-09-11T00:58:02.279Z,16.05
2018-09-11T01:00:31.384Z,16.05
2018-09-11T01:03:00.503Z,16.04
2018-09-11T01:05:29.686Z,16.03
2018-09-11T01:07:58.835Z,16.01
2018-09-11T01:10:27.941Z,15.98
2018-09-11T01:12:57.022Z,15.94
2018-09-11T01:15:26.108Z,15.90
2018-09-11T01:17:55.218Z,15.87
2018-09-11T01:20:24.330Z,15.86
2018-09-11T01:22:53.453Z,15.84
2018-09-11T01:25:22.578Z,15.83
2018-09-11T01:27:51.702Z,15.80
2018-09-11T01:30:22.174Z,15.77
2018-09-11T01:32:52.300Z,15.76
2018-09-11T01:35:22.190Z,15.74
2018-09-11T01:37:51.312Z,15.72
2018-09-11T01:40:20.467Z,15.72
2018-09-11T01:42:49.567Z,15.70
2018-09-11T01:45:18.717Z,15.68
2018-09-11T01:47:48.534Z,15.66
2018-09-11T01:50:18.467Z,15.64
2018-09-11T01:52:48.621Z,15.60
2018-09-11T01:55:18.587Z,15.56
2018-09-11T01:57:48.539Z,15.55
2018-09-11T02:00:20.747Z,15.50
2018-09-11T02:02:49.891Z,15.50
2018-09-11T02:05:19.019Z,15.50
2018-09-11T02:07:49.061Z,15.45
2018-09-11T02:10:18.587Z,15.45
2018-09-11T02:12:48.817Z,15.40
2018-09-11T02:15:18.925Z,15.43
2018-09-11T02:17:48.738Z,15.41
2018-09-11T02:20:18.911Z,15.38
2018-09-11T02:22:48.811Z,15.33
2018-09-11T02:25:18.713Z,15.31
2018-09-11T02:27:48.831Z,15.29
2018-09-11T02:30:19.076Z,15.29
2018-09-11T02:32:48.885Z,15.29
2018-09-11T02:35:18.769Z,15.29
2018-09-11T02:37:48.982Z,15.25
2018-09-11T02:40:19.156Z,15.30
2018-09-11T02:42:48.950Z,15.26
2018-09-11T02:45:22.925Z,15.25
2018-09-11T02:47:53.257Z,15.24
2018-09-11T02:50:22.435Z,15.20
2018-09-11T02:52:51.567Z,15.19
2018-09-11T02:55:20.625Z,15.19
2018-09-11T02:57:49.705Z,15.21
2018-09-11T03:00:19.168Z,15.22
2018-09-11T03:02:49.078Z,15.05
2018-09-11T03:05:19.189Z,15.13
2018-09-11T03:07:49.104Z,15.13
2018-09-11T03:10:19.245Z,15.08
2018-09-11T03:12:49.143Z,15.07
2018-09-11T03:15:19.257Z,15.04
2018-09-11T03:17:49.181Z,15.07
2018-09-11T03:20:19.298Z,15.12
2018-09-11T03:22:49.242Z,15.12
2018-09-11T03:25:19.225Z,15.09
2018-09-11T03:27:48.314Z,15.08
2018-09-11T03:30:17.418Z,15.07
2018-09-11T03:32:46.437Z,15.03
2018-09-11T03:35:15.543Z,15.01
2018-09-11T03:37:44.605Z,14.96
2018-09-11T03:40:13.677Z,14.90
2018-09-11T03:42:42.839Z,14.88
2018-09-11T03:45:12.141Z,14.83
2018-09-11T03:47:41.357Z,14.77
2018-09-11T03:50:10.415Z,14.71
2018-09-11T03:52:39.609Z,14.67
2018-09-11T03:55:08.777Z,14.67
2018-09-11T03:57:37.819Z,14.66
2018-09-11T04:00:06.971Z,14.65
2018-09-11T04:02:36.071Z,14.65
2018-09-11T04:05:05.169Z,14.61
2018-09-11T04:07:34.298Z,14.57
2018-09-11T04:10:03.402Z,14.56
2018-09-11T04:12:32.557Z,14.56
2018-09-11T04:15:01.740Z,14.55
2018-09-11T04:17:37.343Z,14.54
2018-09-11T04:20:06.539Z,14.54
2018-09-11T04:22:35.697Z,14.51
2018-09-11T04:25:04.790Z,14.48
2018-09-11T04:27:34.186Z,14.44
2018-09-11T04:30:03.331Z,14.43
2018-09-11T04:32:32.387Z,14.41
2018-09-11T04:35:01.434Z,14.39
2018-09-11T04:37:30.533Z,14.38
2018-09-11T04:39:59.734Z,14.41
2018-09-11T04:42:28.778Z,14.39
2018-09-11T04:44:57.889Z,14.39
2018-09-11T04:47:27.008Z,14.35
2018-09-11T04:49:56.136Z,14.34
2018-09-11T04:52:25.193Z,14.30
2018-09-11T04:54:54.259Z,14.24
2018-09-11T04:57:23.302Z,14.27
2018-09-11T04:59:52.447Z,14.26
2018-09-11T05:02:21.787Z,14.24
2018-09-11T05:04:50.842Z,14.21
2018-09-11T05:07:20.327Z,14.18
2018-09-11T05:09:50.221Z,14.18
2018-09-11T05:12:20.186Z,14.19
2018-09-11T05:14:49.245Z,14.20
2018-09-11T05:17:18.316Z,14.21
2018-09-11T05:19:47.378Z,14.21
2018-09-11T05:22:16.438Z,14.19
2018-09-11T05:24:45.537Z,14.22
2018-09-11T05:27:14.767Z,14.25
2018-09-11T05:29:43.773Z,14.30
2018-09-11T05:32:13.334Z,14.34
2018-09-11T05:34:42.728Z,14.36
2018-09-11T05:37:11.823Z,14.39
2018-09-11T05:39:40.998Z,14.40
2018-09-11T05:42:10.138Z,14.44
2018-09-11T05:44:39.209Z,14.44
2018-09-11T05:47:08.290Z,14.45
2018-09-11T05:49:38.104Z,14.45
2018-09-11T05:52:07.570Z,14.44
2018-09-11T05:54:36.664Z,14.45
2018-09-11T05:57:06.462Z,14.48
2018-09-11T05:59:35.946Z,14.48
2018-09-11T06:02:05.047Z,14.50
2018-09-11T06:04:34.076Z,14.50
2018-09-11T06:07:03.096Z,14.54
2018-09-11T06:09:32.195Z,14.53
2018-09-11T06:12:01.274Z,14.57
2018-09-11T06:14:30.330Z,14.59
2018-09-11T06:16:59.467Z,14.63
2018-09-11T06:19:28.571Z,14.67
2018-09-11T06:21:57.628Z,14.70
2018-09-11T06:24:26.725Z,14.74
2018-09-11T06:26:55.869Z,14.76
2018-09-11T06:29:24.948Z,14.82
2018-09-11T06:31:54.093Z,14.83
2018-09-11T06:34:23.336Z,14.88
2018-09-11T06:36:52.427Z,14.96
2018-09-11T06:39:21.518Z,15.03
2018-09-11T06:41:51.301Z,15.08
2018-09-11T06:44:21.237Z,15.14
2018-09-11T06:46:51.365Z,15.25
2018-09-11T06:49:21.349Z,15.30
2018-09-11T06:51:51.254Z,15.38
2018-09-11T06:54:21.291Z,15.47
2018-09-11T07:17:38.608Z,16.39
2018-09-11T07:20:09.967Z,16.51
2018-09-11T07:22:39.054Z,16.62
2018-09-11T07:25:08.689Z,16.71
2018-09-11T07:27:37.888Z,16.79
2018-09-11T07:30:07.490Z,16.94
2018-09-11T07:32:41.110Z,17.07
2018-09-11T07:35:10.700Z,17.19
2018-09-11T07:37:40.133Z,17.31
2018-09-11T07:43:13.751Z,17.63
2018-09-11T07:45:42.920Z,17.78
2018-09-11T07:48:12.490Z,17.93
2018-09-11T07:50:41.812Z,18.07
2018-09-11T07:53:11.501Z,18.18
2018-09-11T07:55:40.786Z,18.28
2018-09-11T07:58:11.146Z,18.34
2018-09-11T08:00:41.964Z,18.40
2018-09-11T08:03:11.876Z,18.48
2018-09-11T08:05:41.084Z,18.57
2018-09-11T08:08:10.653Z,18.74
2018-09-11T08:10:40.842Z,18.91
2018-09-11T08:13:11.217Z,19.03
2018-09-11T08:15:40.487Z,19.17
2018-09-11T08:18:12.197Z,19.37
2018-09-11T08:20:41.345Z,19.46
2018-09-11T08:23:10.861Z,19.52
2018-09-11T08:25:40.860Z,19.57
2018-09-11T08:28:10.409Z,19.62
2018-09-11T08:30:39.717Z,19.69
2018-09-11T08:33:09.326Z,19.78
2018-09-11T08:35:40.498Z,19.83
2018-09-11T08:38:10.203Z,19.94
2018-09-11T08:40:39.409Z,20.03
2018-09-11T08:56:13.321Z,20.12
2018-09-11T08:58:42.695Z,20.71
2018-09-11T09:01:11.718Z,20.75
2018-09-11T09:03:40.957Z,20.77
2018-09-11T09:06:10.557Z,20.78
2018-09-11T09:08:39.808Z,20.83
2018-09-11T09:11:09.656Z,20.87
2018-09-11T09:13:38.923Z,20.95
2018-09-11T09:16:08.148Z,21.07
2018-09-11T09:18:37.284Z,21.19
2018-09-11T09:21:06.852Z,21.29
2018-09-11T09:23:36.086Z,21.39
2018-09-11T09:26:05.604Z,21.49
2018-09-11T09:28:34.962Z,21.54
2018-09-11T09:31:04.554Z,21.64
2018-09-11T09:33:33.765Z,21.72
2018-09-11T09:36:03.307Z,21.74
2018-09-11T09:38:32.496Z,21.72
2018-09-11T09:41:02.041Z,21.74
2018-09-11T09:43:31.216Z,21.83
2018-09-11T09:46:00.721Z,21.89
2018-09-11T09:48:29.928Z,21.99
2018-09-11T09:50:59.204Z,22.07
2018-09-11T09:53:28.423Z,22.15
2018-09-11T09:55:57.605Z,22.20
2018-09-11T09:58:26.829Z,22.15
2018-09-11T10:00:59.052Z,22.09
2018-09-11T10:03:28.217Z,22.08
2018-09-11T10:05:57.459Z,22.12
2018-09-11T10:08:26.636Z,22.18
2018-09-11T10:10:57.685Z,22.23
2018-09-11T10:13:26.852Z,22.28
2018-09-11T10:15:56.029Z,22.38
2018-09-11T10:18:25.198Z,22.52
2018-09-11T10:20:54.363Z,22.63
2018-09-11T10:23:23.583Z,22.67
2018-09-11T10:25:53.642Z,22.72
2018-09-11T10:43:55.281Z,23.31
2018-09-11T10:46:25.116Z,23.39
2018-09-11T10:48:54.768Z,23.49
2018-09-11T10:51:24.334Z,23.63
2018-09-11T10:53:53.805Z,23.64
2018-09-11T11:54:07.144Z,24.68
2018-09-11T11:56:36.616Z,24.77
2018-09-11T11:59:06.501Z,24.80
2018-09-11T12:01:36.286Z,24.83
2018-09-11T12:04:06.157Z,24.84
2018-09-11T12:06:35.592Z,24.91
2018-09-11T12:09:08.348Z,24.92
2018-09-11T12:11:37.676Z,24.97
2018-09-11T12:14:07.364Z,24.96
2018-09-11T12:19:21.615Z,25.11
2018-09-11T12:21:50.890Z,25.11
2018-09-11T12:24:22.914Z,25.06
2018-09-11T12:26:52.463Z,25.11
2018-09-11T12:29:22.151Z,25.24
2018-09-11T12:31:51.301Z,25.35
2018-09-11T12:34:21.084Z,25.38
2018-09-11T12:36:52.458Z,25.41
2018-09-11T12:39:22.183Z,25.41
2018-09-11T12:41:51.436Z,25.51
2018-09-11T12:44:20.982Z,25.59
2018-09-11T12:46:50.235Z,25.62
2018-09-11T12:49:19.827Z,25.59
2018-09-11T12:51:51.540Z,25.64
2018-09-11T12:54:22.839Z,25.70
2018-09-11T12:56:53.813Z,25.75
2018-09-11T12:59:23.035Z,25.76
2018-09-11T13:01:52.243Z,25.69
2018-09-11T13:04:23.510Z,25.65
2018-09-11T13:06:52.662Z,25.67
2018-09-11T13:09:22.174Z,25.66
2018-09-11T13:11:52.213Z,25.69
2018-09-11T13:14:21.748Z,25.77
2018-09-11T13:16:50.947Z,25.89
2018-09-11T13:19:21.969Z,25.90
2018-09-11T13:21:51.162Z,25.90
2018-09-11T13:24:20.368Z,25.95
2018-09-11T13:26:49.627Z,26.02
2018-09-11T13:29:19.257Z,26.07
2018-09-11T13:31:48.437Z,26.13
2018-09-11T13:34:20.600Z,26.23
2018-09-11T13:36:51.538Z,26.33
2018-09-11T13:39:21.077Z,26.39
2018-09-11T13:41:50.281Z,26.47
2018-09-11T13:44:19.433Z,26.53
2018-09-11T13:46:48.721Z,26.56
2018-09-11T13:49:20.127Z,26.59
2018-09-11T13:51:51.274Z,26.61
2018-09-11T13:54:20.866Z,26.71
2018-09-11T13:56:50.036Z,26.80
2018-09-11T13:59:19.744Z,26.92
2018-09-11T14:01:49.042Z,27.03
2018-09-11T14:04:18.634Z,27.05
2018-09-11T14:06:47.847Z,27.11
2018-09-11T14:09:17.369Z,27.26
2018-09-11T14:11:46.523Z,27.32
2018-09-11T14:14:15.996Z,27.36
2018-09-11T14:16:45.207Z,27.36
2018-09-11T14:19:15.118Z,27.46
2018-09-11T14:21:44.517Z,27.63
2018-09-11T14:24:14.875Z,27.84
2018-09-11T14:26:44.614Z,27.89
2018-09-11T14:29:14.274Z,27.91
2018-09-11T14:31:43.427Z,28.09
2018-09-11T14:34:12.957Z,28.29
2018-09-11T14:36:42.161Z,28.52
2018-09-11T14:39:12.304Z,28.75
2018-09-11T14:41:41.504Z,29.12
2018-09-11T14:44:11.024Z,29.41
2018-09-11T14:46:40.220Z,29.66
2018-09-11T14:49:09.714Z,29.88
2018-09-11T14:51:38.907Z,29.77
2018-09-11T14:54:08.549Z,29.84
2018-09-11T14:56:37.776Z,30.13
2018-09-11T14:59:09.917Z,30.18
2018-09-11T15:01:39.087Z,30.13
2018-09-11T15:04:11.263Z,30.27
2018-09-11T15:06:42.667Z,30.53
2018-09-11T15:09:12.413Z,30.66
2018-09-11T15:11:41.591Z,30.74
2018-09-11T15:14:11.170Z,30.74
2018-09-11T15:16:40.400Z,30.76
2018-09-11T15:19:09.953Z,30.82
2018-09-11T15:21:39.149Z,30.69
2018-09-11T15:24:09.162Z,30.52
2018-09-11T15:26:38.320Z,30.44
2018-09-11T15:29:08.284Z,30.30
2018-09-11T15:31:40.278Z,30.05
2018-09-11T15:34:09.878Z,29.80
2018-09-11T15:36:39.048Z,29.62
2018-09-11T15:39:08.643Z,29.38
2018-09-11T15:41:37.873Z,29.10
2018-09-11T15:44:07.525Z,28.69
2018-09-11T15:46:36.629Z,28.35
2018-09-11T15:49:06.222Z,28.14
2018-09-11T15:51:35.426Z,27.97
2018-09-11T15:54:05.022Z,27.75
2018-09-11T15:56:35.157Z,27.65
2018-09-11T15:59:04.770Z,27.49
2018-09-11T16:01:34.019Z,27.36
2018-09-11T16:04:05.358Z,27.26
2018-09-11T16:06:34.582Z,27.18
2018-09-11T16:09:06.876Z,27.05
2018-09-11T16:11:37.012Z,26.91
2018-09-11T16:14:08.423Z,26.82
2018-09-11T16:16:37.618Z,26.77
2018-09-11T16:19:07.202Z,26.71
2018-09-11T16:21:36.372Z,26.62
2018-09-11T16:24:06.053Z,26.51
2018-09-11T16:26:35.229Z,26.39
2018-09-11T16:29:05.105Z,26.29
2018-09-11T16:31:34.317Z,26.25
2018-09-11T16:34:03.907Z,26.15
2018-09-11T16:36:33.078Z,26.06
2018-09-11T16:39:02.428Z,25.97
2018-09-11T16:41:32.030Z,25.92
2018-09-11T16:44:01.241Z,25.85
2018-09-11T16:46:30.470Z,25.79
2018-09-11T16:48:59.701Z,25.73
2018-09-11T16:51:28.957Z,25.66
2018-09-11T16:53:58.140Z,25.58
2018-09-11T16:56:29.130Z,25.48
2018-09-11T16:58:58.289Z,25.39
2018-09-11T17:01:28.415Z,25.31
2018-09-11T17:03:57.990Z,25.22
2018-09-11T17:06:27.776Z,25.11
2018-09-11T17:08:56.998Z,24.99
2018-09-11T17:11:26.139Z,24.89
2018-09-11T17:13:55.360Z,24.79
2018-09-11T17:16:24.561Z,24.69
2018-09-11T17:18:54.776Z,24.61
2018-09-11T17:21:26.132Z,24.52
2018-09-11T17:23:55.296Z,24.39
2018-09-11T17:26:24.894Z,24.29
2018-09-11T17:28:54.161Z,24.18
2018-09-11T17:31:23.905Z,24.07
2018-09-11T17:33:53.910Z,23.97
2018-09-11T17:36:25.229Z,23.84
2018-09-11T17:38:54.459Z,23.74
2018-09-11T17:41:24.862Z,23.65
2018-09-11T17:43:54.157Z,23.55
2018-09-11T17:46:23.516Z,23.46
2018-09-11T17:48:53.654Z,23.37
2018-09-11T17:51:22.850Z,23.26
2018-09-11T17:53:52.113Z,23.18
2018-09-11T17:56:22.478Z,23.09
2018-09-11T17:58:51.720Z,22.99
2018-09-11T18:01:21.497Z,22.88
2018-09-11T18:03:50.806Z,22.78
2018-09-11T18:06:20.405Z,22.66
2018-09-11T18:08:51.439Z,22.55
2018-09-11T18:11:22.649Z,22.45
2018-09-11T18:13:51.849Z,22.35
2018-09-11T18:16:21.139Z,22.26
2018-09-11T18:18:50.396Z,22.17
2018-09-11T18:21:20.112Z,22.05
2018-09-11T18:23:49.352Z,21.94
2018-09-11T18:26:19.066Z,21.86
2018-09-11T18:28:48.313Z,21.80
2018-09-11T18:31:18.000Z,21.75
2018-09-11T18:33:47.294Z,21.69
2018-09-11T18:36:17.159Z,21.62
2018-09-11T18:38:46.522Z,21.55
2018-09-11T18:41:16.247Z,21.50
2018-09-11T18:43:45.559Z,21.46
2018-09-11T18:46:15.351Z,21.42
2018-09-11T18:48:46.354Z,21.38
2018-09-11T18:51:16.043Z,21.30
2018-09-11T18:53:45.408Z,21.23
2018-09-11T18:56:16.181Z,21.16
2018-09-11T18:58:45.618Z,21.07
2018-09-11T19:01:15.273Z,20.98
2018-09-11T19:03:44.815Z,20.92
2018-09-11T19:06:14.427Z,20.81
2018-09-11T19:08:44.013Z,20.72
2018-09-11T19:11:15.657Z,20.64
2018-09-11T19:13:46.029Z,20.56
2018-09-11T19:16:15.931Z,20.50
2018-09-11T19:18:45.548Z,20.41
2018-09-11T19:21:16.620Z,20.33
2018-09-11T19:23:47.029Z,20.25
2018-09-11T19:26:17.876Z,20.22
2018-09-11T19:28:47.994Z,20.18
2018-09-11T19:31:17.846Z,20.11
2018-09-11T19:33:47.407Z,20.05
2018-09-11T19:36:17.282Z,20.01
2018-09-11T19:38:49.531Z,19.99
2018-09-11T19:41:19.488Z,19.95
2018-09-11T19:43:49.401Z,19.92
2018-09-11T19:46:19.308Z,19.86
2018-09-11T19:48:52.920Z,19.81
2018-09-11T19:51:22.360Z,19.75
2018-09-11T19:53:56.705Z,19.69
2018-09-11T19:56:27.191Z,19.65
2018-09-11T19:58:56.708Z,19.60
2018-09-11T20:01:26.310Z,19.54
2018-09-11T20:03:55.800Z,19.48
2018-09-11T20:06:25.616Z,19.41
2018-09-11T20:08:58.283Z,19.35
2018-09-11T20:11:28.588Z,19.32
2018-09-11T20:13:58.920Z,19.22
2018-09-11T20:16:28.259Z,19.24
2018-09-11T20:18:57.542Z,19.24
2018-09-11T20:21:27.228Z,19.22
2018-09-11T20:23:56.559Z,19.20
2018-09-11T20:26:25.858Z,19.12
2018-09-11T20:28:55.314Z,19.04
2018-09-11T20:31:24.731Z,18.98
2018-09-11T20:33:53.929Z,18.93
2018-09-11T20:36:23.621Z,18.85
2018-09-11T20:38:52.883Z,18.75
2018-09-11T20:41:22.405Z,18.68
2018-09-11T20:43:51.658Z,18.63
2018-09-11T20:46:21.251Z,18.56
2018-09-11T20:48:50.450Z,18.52
2018-09-11T20:51:19.975Z,18.50
2018-09-11T20:53:51.239Z,18.49
2018-09-11T20:56:21.465Z,18.47
2018-09-11T20:58:52.460Z,18.45
2018-09-11T21:01:24.977Z,18.44
2018-09-11T21:03:54.278Z,18.44
2018-09-11T21:06:23.948Z,18.41
2018-09-11T21:08:53.313Z,18.38
2018-09-11T21:11:22.673Z,18.35
2018-09-11T21:13:54.476Z,18.32
2018-09-11T21:16:23.646Z,18.28
2018-09-11T21:18:52.845Z,18.26
2018-09-11T21:21:23.254Z,18.23
2018-09-11T21:23:52.678Z,18.19
2018-09-11T21:26:22.423Z,18.12
2018-09-11T21:28:51.903Z,18.07
2018-09-11T21:31:21.512Z,18.03
2018-09-11T21:33:52.527Z,17.96
2018-09-11T21:36:22.291Z,17.92
2018-09-11T21:38:51.450Z,17.89
2018-09-11T21:41:20.974Z,17.83
2018-09-11T21:43:50.164Z,17.79
2018-09-11T21:46:19.924Z,17.77
2018-09-11T21:48:50.960Z,17.74
2018-09-11T21:51:20.958Z,17.70
2018-09-11T21:53:52.169Z,17.65
2018-09-11T21:56:21.381Z,17.60
2018-09-11T21:58:52.470Z,17.58
2018-09-11T22:01:27.146Z,17.55
2018-09-11T22:03:58.601Z,17.53
2018-09-11T22:06:28.150Z,17.52
2018-09-11T22:08:57.415Z,17.49
2018-09-11T22:11:28.770Z,17.47
2018-09-11T22:13:57.961Z,17.43
2018-09-11T22:16:29.217Z,17.42
2018-09-11T22:18:58.447Z,17.42
2018-09-11T22:21:31.934Z,17.37
2018-09-11T22:24:01.439Z,17.35
2018-09-11T22:26:31.116Z,17.35
2018-09-11T22:29:00.553Z,17.33
2018-09-11T22:31:30.301Z,17.29
2018-09-11T22:33:59.523Z,17.24
2018-09-11T22:36:28.998Z,17.18
2018-09-11T22:38:58.211Z,17.13
2018-09-11T22:41:27.839Z,17.04
2018-09-11T22:43:57.003Z,16.98
2018-09-11T22:46:26.680Z,16.91
2018-09-11T22:48:55.897Z,16.87
2018-09-11T22:51:25.421Z,16.87
2018-09-11T22:53:54.578Z,16.83
2018-09-11T22:56:24.185Z,16.77
2018-09-11T22:58:55.162Z,16.70
2018-09-11T23:01:24.708Z,16.66
2018-09-11T23:03:53.917Z,16.64
2018-09-11T23:06:23.573Z,16.62
2018-09-11T23:08:52.781Z,16.61
2018-09-11T23:11:22.313Z,16.61
2018-09-11T23:13:51.526Z,16.62
2018-09-11T23:16:20.695Z,16.61
2018-09-11T23:18:49.883Z,16.58
2018-09-11T23:21:19.359Z,16.55
2018-09-11T23:23:50.289Z,16.51
2018-09-11T23:26:21.451Z,16.49
2018-09-11T23:28:50.651Z,16.49
2018-09-11T23:31:20.274Z,16.46
2018-09-11T23:33:49.501Z,16.41
2018-09-11T23:36:20.996Z,16.38
2018-09-11T23:38:50.142Z,16.37
2018-09-11T23:41:19.719Z,16.37
2018-09-11T23:43:49.149Z,16.37
2018-09-11T23:46:18.707Z,16.37
2018-09-11T23:48:47.864Z,16.36
2018-09-11T23:51:17.429Z,16.34
2018-09-11T23:53:46.587Z,16.35
2018-09-11T23:56:17.880Z,16.34
2018-09-11T23:58:47.177Z,16.33
